Saint Louis, Missouri
Traffic Map
Current Weather Conditions
Saint Louis, Missouri
Scattered Clouds
Scattered Clouds
22°
Feels Like: 22°
Wind Chill: 22° Ceiling: Unl
Heat Index: 22° Visibility: 10mi
Dew Point: 18° Wind: 5mph
Humidity: 78% Direction: 200° (SSW)
Pressure: 29.83in Gusts: 0mph
Raw Report DataKCPS 260553Z AUTO 20004KT 10SM FEW042 SCT120 22/18 A2983 RMK AO2 SLP098 T02220183 10272 20222 403110183 50002
Traffic Incident Summary
Active as of:
Severity:
Category:
InformationThere was an issue retrieving the traffic information for this location. Please try a different location or try again shortly.
Advertisements